Innovator — WDF4880 — position and weather

sailwx.info

Track history (hours):
 
Tides and Currents Weather Stations Pressure Air Temp Water Temp Dewpoint Dewpoint Depression Visibility Wind Speed Wind Dir Waves Ship Positions

Innovator

Owner: Canal Barge Company, Inc., Belle Chasse, LA. More information available from US FCC via Universal Licensing System and Coast Guard Vessel Documentation Center.

Last reported at 2017-Sep-13 03:49 UTC. Time now 2017-Sep-22 11:43 UTC.
Position N 30°02' W 093°44'.
Warning: this ship's position is 9 days out of date.

Date/timePositionNaut miles runAvg speedWind from/ knotsBaromVisibWave heightAir tempDewpointWater temp
2017-Sep-13 03:49N 30°02' W 093°44'2 5.5
2017-Sep-13 03:30N 30°03' W 093°42'3 5.4
2017-Sep-13 03:00N 30°04' W 093°39'3 5.3
2017-Sep-13 02:30N 30°04' W 093°36'3 5.1
2017-Sep-13 02:00N 30°04' W 093°33'3 5.2
2017-Sep-13 01:30N 30°04' W 093°30'3 5.0
2017-Sep-13 01:00N 30°04' W 093°27'2 5.0
2017-Sep-13 00:30N 30°04' W 093°25'3 5.1
2017-Sep-13 00:00N 30°04' W 093°22'2 3.1
2017-Sep-12 23:30N 30°05' W 093°20'2 4.3
2017-Sep-12 23:00N 30°07' W 093°20'2 4.2
2017-Sep-12 22:28N 30°09' W 093°20'0 0.0
2017-Sep-12 21:58N 30°09' W 093°20'0 0.0
2017-Sep-12 21:28N 30°09' W 093°20'0 0.0
2017-Sep-12 20:58N 30°09' W 093°20'0 0.0
2017-Sep-12 20:28N 30°09' W 093°20'0 0.0
2017-Sep-12 19:58N 30°09' W 093°20'0 0.0
2017-Sep-12 19:28N 30°09' W 093°20'0 0.0
2017-Sep-12 18:58N 30°09' W 093°20'0 0.0
2017-Sep-12 18:28N 30°09' W 093°20'0 0.0
2017-Sep-12 17:58N 30°09' W 093°20'0 0.0
2017-Sep-12 17:28N 30°09' W 093°20'0 0.0
2017-Sep-12 16:58N 30°09' W 093°20'0 0.0
2017-Sep-12 16:28N 30°09' W 093°20'0 0.0
2017-Sep-12 15:58N 30°09' W 093°20'0 0.0
2017-Sep-12 15:28N 30°09' W 093°20'0 0.0
2017-Sep-12 14:58N 30°09' W 093°20'0 0.0
2017-Sep-12 14:28N 30°09' W 093°20'0 0.0
2017-Sep-12 06:16N 30°09' W 093°20'0 0.0
2017-Sep-12 05:58N 30°09' W 093°20'0 0.0
2017-Sep-12 05:28N 30°09' W 093°20'0 0.0
2017-Sep-12 04:58N 30°09' W 093°20'0 0.0
2017-Sep-12 04:28N 30°09' W 093°20'0 0.1
2017-Sep-12 03:58N 30°09' W 093°20'1 1.3
2017-Sep-12 03:31N 30°08' W 093°20'2 4.2
2017-Sep-12 03:01N 30°06' W 093°20'1 2.8
2017-Sep-12 02:31N 30°06' W 093°18'2 3.5
2017-Sep-12 02:01N 30°05' W 093°17'1 2.9
2017-Sep-12 01:30N 30°03' W 093°16'2 3.8
2017-Sep-12 01:00N 30°02' W 093°15'2 4.2
2017-Sep-12 00:30N 29°60' W 093°13'2 4.4
2017-Sep-12 00:00N 29°58' W 093°12'2 4.2
2017-Sep-11 23:30N 29°57' W 093°10'2 3.8
2017-Sep-11 23:00N 29°56' W 093°08'3 4.5
2017-Sep-11 22:26N 29°56' W 093°05'1 1.4
2017-Sep-11 21:59N 29°56' W 093°04'0 0.0
2017-Sep-11 21:29N 29°56' W 093°04'0 0.0
2017-Sep-11 10:49N 29°56' W 093°04'1 1.1
2017-Sep-11 09:29N 29°56' W 093°06'0 0.1
2017-Sep-11 08:11N 29°56' W 093°06'1 3.7
2017-Sep-11 07:59N 29°56' W 093°07'2 4.8
2017-Sep-11 07:29N 29°56' W 093°10'3 4.5
2017-Sep-11 06:51N 29°58' W 093°12'2 4.6
2017-Sep-11 06:29N 29°60' W 093°13'2 4.1
2017-Sep-11 05:56N 30°02' W 093°14'2 3.9
2017-Sep-11 05:29N 30°03' W 093°16'2 4.0
2017-Sep-11 05:01N 30°05' W 093°17'2 4.1
2017-Sep-11 04:28N 30°06' W 093°19'2 4.1
2017-Sep-11 04:00N 30°05' W 093°20'3 4.9
2017-Sep-11 03:29N 30°04' W 093°23'4 7.1
2017-Sep-11 02:55N 30°04' W 093°27'3 7.6
2017-Sep-11 02:30N 30°04' W 093°31'4 7.7
2017-Sep-11 01:57N 30°04' W 093°36'3 7.4
2017-Sep-11 01:30N 30°04' W 093°40'  
2017-Sep-03 14:47N 30°03' W 093°43'0 0.0
2017-Sep-03 13:59N 30°03' W 093°43'0 0.0
2017-Sep-03 13:26N 30°03' W 093°43'0 0.0
2017-Sep-03 12:59N 30°03' W 093°43'0 0.0
2017-Sep-03 12:23N 30°03' W 093°43'0 0.0
2017-Sep-03 11:59N 30°03' W 093°43'0 0.0
2017-Sep-03 11:29N 30°03' W 093°43'0 0.0
2017-Sep-03 09:38N 30°03' W 093°43'0 0.0
2017-Sep-03 09:29N 30°03' W 093°43'0 0.0
2017-Sep-03 08:59N 30°03' W 093°43'0 0.0
2017-Sep-03 08:29N 30°03' W 093°43'0 0.0
2017-Sep-03 07:59N 30°03' W 093°43'0 0.0
2017-Sep-03 06:23N 30°03' W 093°43'0 0.0
2017-Sep-03 05:59N 30°03' W 093°43'0 0.0
2017-Sep-03 05:29N 30°03' W 093°43'  
Track history (hours):
 
Tides and Currents Weather Stations Pressure Air Temp Water Temp Dewpoint Dewpoint Depression Visibility Wind Speed Wind Dir Waves Ship Positions

Innovator

Owner: Canal Barge Company, Inc., Belle Chasse, LA. More information available from US FCC via Universal Licensing System and Coast Guard Vessel Documentation Center.

Last reported at 2017-Sep-13 03:49 UTC. Time now 2017-Sep-22 11:43 UTC.
Position N 30°02' W 093°44'.
Warning: this ship's position is 9 days out of date.

Date/timePositionNaut miles runAvg speedWind from/ knotsBaromVisibWave heightAir tempDewpointWater temp
2017-Sep-13 03:49N 30°02' W 093°44'2 5.5
2017-Sep-13 03:30N 30°03' W 093°42'3 5.4
2017-Sep-13 03:00N 30°04' W 093°39'3 5.3
2017-Sep-13 02:30N 30°04' W 093°36'3 5.1
2017-Sep-13 02:00N 30°04' W 093°33'3 5.2
2017-Sep-13 01:30N 30°04' W 093°30'3 5.0
2017-Sep-13 01:00N 30°04' W 093°27'2 5.0
2017-Sep-13 00:30N 30°04' W 093°25'3 5.1
2017-Sep-13 00:00N 30°04' W 093°22'2 3.1
2017-Sep-12 23:30N 30°05' W 093°20'2 4.3
2017-Sep-12 23:00N 30°07' W 093°20'2 4.2
2017-Sep-12 22:28N 30°09' W 093°20'0 0.0
2017-Sep-12 21:58N 30°09' W 093°20'0 0.0
2017-Sep-12 21:28N 30°09' W 093°20'0 0.0
2017-Sep-12 20:58N 30°09' W 093°20'0 0.0
2017-Sep-12 20:28N 30°09' W 093°20'0 0.0
2017-Sep-12 19:58N 30°09' W 093°20'0 0.0
2017-Sep-12 19:28N 30°09' W 093°20'0 0.0
2017-Sep-12 18:58N 30°09' W 093°20'0 0.0
2017-Sep-12 18:28N 30°09' W 093°20'0 0.0
2017-Sep-12 17:58N 30°09' W 093°20'0 0.0
2017-Sep-12 17:28N 30°09' W 093°20'0 0.0
2017-Sep-12 16:58N 30°09' W 093°20'0 0.0
2017-Sep-12 16:28N 30°09' W 093°20'0 0.0
2017-Sep-12 15:58N 30°09' W 093°20'0 0.0
2017-Sep-12 15:28N 30°09' W 093°20'0 0.0
2017-Sep-12 14:58N 30°09' W 093°20'0 0.0
2017-Sep-12 14:28N 30°09' W 093°20'0 0.0
2017-Sep-12 06:16N 30°09' W 093°20'0 0.0
2017-Sep-12 05:58N 30°09' W 093°20'0 0.0
2017-Sep-12 05:28N 30°09' W 093°20'0 0.0
2017-Sep-12 04:58N 30°09' W 093°20'0 0.0
2017-Sep-12 04:28N 30°09' W 093°20'0 0.1
2017-Sep-12 03:58N 30°09' W 093°20'1 1.3
2017-Sep-12 03:31N 30°08' W 093°20'2 4.2
2017-Sep-12 03:01N 30°06' W 093°20'1 2.8
2017-Sep-12 02:31N 30°06' W 093°18'2 3.5
2017-Sep-12 02:01N 30°05' W 093°17'1 2.9
2017-Sep-12 01:30N 30°03' W 093°16'2 3.8
2017-Sep-12 01:00N 30°02' W 093°15'2 4.2
2017-Sep-12 00:30N 29°60' W 093°13'2 4.4
2017-Sep-12 00:00N 29°58' W 093°12'2 4.2
2017-Sep-11 23:30N 29°57' W 093°10'2 3.8
2017-Sep-11 23:00N 29°56' W 093°08'3 4.5
2017-Sep-11 22:26N 29°56' W 093°05'1 1.4
2017-Sep-11 21:59N 29°56' W 093°04'0 0.0
2017-Sep-11 21:29N 29°56' W 093°04'0 0.0
2017-Sep-11 10:49N 29°56' W 093°04'1 1.1
2017-Sep-11 09:29N 29°56' W 093°06'0 0.1
2017-Sep-11 08:11N 29°56' W 093°06'1 3.7
2017-Sep-11 07:59N 29°56' W 093°07'2 4.8
2017-Sep-11 07:29N 29°56' W 093°10'3 4.5
2017-Sep-11 06:51N 29°58' W 093°12'2 4.6
2017-Sep-11 06:29N 29°60' W 093°13'2 4.1
2017-Sep-11 05:56N 30°02' W 093°14'2 3.9
2017-Sep-11 05:29N 30°03' W 093°16'2 4.0
2017-Sep-11 05:01N 30°05' W 093°17'2 4.1
2017-Sep-11 04:28N 30°06' W 093°19'2 4.1
2017-Sep-11 04:00N 30°05' W 093°20'3 4.9
2017-Sep-11 03:29N 30°04' W 093°23'4 7.1
2017-Sep-11 02:55N 30°04' W 093°27'3 7.6
2017-Sep-11 02:30N 30°04' W 093°31'4 7.7
2017-Sep-11 01:57N 30°04' W 093°36'3 7.4
2017-Sep-11 01:30N 30°04' W 093°40'  
2017-Sep-03 14:47N 30°03' W 093°43'0 0.0
2017-Sep-03 13:59N 30°03' W 093°43'0 0.0
2017-Sep-03 13:26N 30°03' W 093°43'0 0.0
2017-Sep-03 12:59N 30°03' W 093°43'0 0.0
2017-Sep-03 12:23N 30°03' W 093°43'0 0.0
2017-Sep-03 11:59N 30°03' W 093°43'0 0.0
2017-Sep-03 11:29N 30°03' W 093°43'0 0.0
2017-Sep-03 09:38N 30°03' W 093°43'0 0.0
2017-Sep-03 09:29N 30°03' W 093°43'0 0.0
2017-Sep-03 08:59N 30°03' W 093°43'0 0.0
2017-Sep-03 08:29N 30°03' W 093°43'0 0.0
2017-Sep-03 07:59N 30°03' W 093°43'0 0.0
2017-Sep-03 06:23N 30°03' W 093°43'0 0.0
2017-Sep-03 05:59N 30°03' W 093°43'0 0.0
2017-Sep-03 05:29N 30°03' W 093°43'  

Dump ship's entire track history